Hauptseite
METAR-TAF:

METAR-TAF

Flughäfen :

Flughafen São Paulo-Congonhas

São Paulo, São Paulo, Brasilien

Breite: 23-37S, Länge: 046-39W, Höhe: 803 m

Beobachtung

Neuester Wetterbericht von vor 25 Minuten, um 04:00 UTC
Wind 4 kt aus Nord/Nordost
Temperatur 20°C
Luftfeuchtigkeit 56%
Luftdruck 1018 hPa
Sichtweite 10 km oder mehr
keine Wolken unter 1500 m und keine Kumulonimbus oder Gewitterwolken

METAR: SBSP 230400Z AUTO 03004KT CAVOK 20/11 Q1018

Zeit: 01:25 (04:25 UTC)

Prognose

Neuester Wetterbericht von vor 6 Stunden und 25 Minuten, um 22:00 UTC
Gültige Prognose vom 23 um 00 UTC bis 23 um 12 UTC
Wind 5 kt aus Nord/Nordost
Sichtweite 10 km oder mehr
keine Wolken unter 1500 m und keine Kumulonimbus oder Gewitterwolken
Übergehend zu
vom 23 um 09 UTC bis 23 um 11 UTC
Wind 7 kt aus Nord

TAF: SBSP 222200Z 2300/2312 02005KT CAVOK TN17/2309Z TX21/2312Z BECMG 2309/2311 35007KT RMK PGN

Wetterbeobachtungen und Prognosen von mehr als 4000 Flughäfen (METAR und TAF Bericht).

Die verfügbaren Stationen werden durch gelbe und rote Markierungen auf der Karte dargestellt.

Führen Sie die Maus auf sie, um den Namen der Station zu sehen.

Darauf klicken, um die Beobachtung von Wetterbeobachtungen und Prognosen zu sehen.

Um die Karte zu ändern : klicken Sie auf den grünen Tasten mit einem schwarzen Kreuz Zum Vergrößern, auf den grünen Button mit einem Gedankenstrich zu verkleinern, oder auf die grünen Pfeile für benachbarte Karten.


METAR-TAF: